sensor_id;sensor_type;location;lat;lon;timestamp;pressure;altitude;pressure_sealevel;temperature;humidity
6835;BME280;3455;42.150;24.734;2022-08-25T00:00:42;67715.00;;;21.77;100.00
6835;BME280;3455;42.150;24.734;2022-08-25T00:03:09;67697.44;;;21.73;100.00
6835;BME280;3455;42.150;24.734;2022-08-25T00:05:38;67726.41;;;21.74;100.00
6835;BME280;3455;42.150;24.734;2022-08-25T00:08:06;67727.84;;;21.89;100.00
6835;BME280;3455;42.150;24.734;2022-08-25T00:10:35;67711.19;;;21.88;100.00
6835;BME280;3455;42.150;24.734;2022-08-25T00:13:03;67691.94;;;21.71;100.00
6835;BME280;3455;42.150;24.734;2022-08-25T00:15:31;67721.16;;;21.69;100.00
6835;BME280;3455;42.150;24.734;2022-08-25T00:17:59;67730.72;;;21.75;100.00
6835;BME280;3455;42.150;24.734;2022-08-25T00:20:27;67719.66;;;21.82;100.00
6835;BME280;3455;42.150;24.734;2022-08-25T00:22:55;67698.44;;;21.81;100.00
6835;BME280;3455;42.150;24.734;2022-08-25T00:25:23;67695.84;;;21.65;100.00
6835;BME280;3455;42.150;24.734;2022-08-25T00:27:51;67731.97;;;21.65;100.00
6835;BME280;3455;42.150;24.734;2022-08-25T00:30:18;67668.81;;;21.60;100.00
6835;BME280;3455;42.150;24.734;2022-08-25T00:32:46;67697.03;;;21.66;100.00
6835;BME280;3455;42.150;24.734;2022-08-25T00:35:13;67722.31;;;21.70;100.00
6835;BME280;3455;42.150;24.734;2022-08-25T00:37:40;67708.50;;;21.67;100.00
6835;BME280;3455;42.150;24.734;2022-08-25T00:40:10;67730.31;;;21.68;100.00
6835;BME280;3455;42.150;24.734;2022-08-25T00:42:37;67703.84;;;21.63;100.00
6835;BME280;3455;42.150;24.734;2022-08-25T00:45:06;67700.34;;;21.60;100.00
6835;BME280;3455;42.150;24.734;2022-08-25T00:47:33;67695.34;;;21.53;100.00
6835;BME280;3455;42.150;24.734;2022-08-25T00:50:02;67696.09;;;21.63;100.00
6835;BME280;3455;42.150;24.734;2022-08-25T00:52:33;67702.00;;;21.57;100.00
6835;BME280;3455;42.150;24.734;2022-08-25T00:55:06;67695.97;;;21.43;100.00
6835;BME280;3455;42.150;24.734;2022-08-25T00:57:37;67711.06;;;21.51;100.00
6835;BME280;3455;42.150;24.734;2022-08-25T01:00:12;67662.00;;;21.35;100.00
6835;BME280;3455;42.150;24.734;2022-08-25T01:02:40;67656.19;;;21.30;100.00
6835;BME280;3455;42.150;24.734;2022-08-25T01:05:07;67639.06;;;21.33;100.00
6835;BME280;3455;42.150;24.734;2022-08-25T01:07:35;67649.38;;;21.33;100.00
6835;BME280;3455;42.150;24.734;2022-08-25T01:10:03;67683.72;;;21.32;100.00
6835;BME280;3455;42.150;24.734;2022-08-25T01:12:32;67690.63;;;21.33;100.00
6835;BME280;3455;42.150;24.734;2022-08-25T01:15:01;67656.94;;;21.24;100.00
6835;BME280;3455;42.150;24.734;2022-08-25T01:17:32;67655.09;;;21.34;100.00
6835;BME280;3455;42.150;24.734;2022-08-25T01:20:00;67654.94;;;21.25;100.00
6835;BME280;3455;42.150;24.734;2022-08-25T01:22:28;67669.19;;;21.51;100.00
6835;BME280;3455;42.150;24.734;2022-08-25T01:24:58;67718.13;;;21.62;100.00
6835;BME280;3455;42.150;24.734;2022-08-25T01:27:28;67715.16;;;21.55;100.00
6835;BME280;3455;42.150;24.734;2022-08-25T01:29:55;67705.16;;;21.73;100.00
6835;BME280;3455;42.150;24.734;2022-08-25T01:32:22;67743.88;;;21.73;100.00
6835;BME280;3455;42.150;24.734;2022-08-25T01:34:49;67726.47;;;21.78;100.00
6835;BME280;3455;42.150;24.734;2022-08-25T01:37:16;67758.13;;;21.84;100.00
6835;BME280;3455;42.150;24.734;2022-08-25T01:39:45;67923.38;;;21.88;100.00
6835;BME280;3455;42.150;24.734;2022-08-25T01:42:18;67745.81;;;22.00;100.00
6835;BME280;3455;42.150;24.734;2022-08-25T01:44:49;67766.47;;;22.00;100.00
6835;BME280;3455;42.150;24.734;2022-08-25T01:47:16;67752.72;;;22.02;100.00
6835;BME280;3455;42.150;24.734;2022-08-25T01:49:43;67787.34;;;21.98;100.00
6835;BME280;3455;42.150;24.734;2022-08-25T01:52:14;67733.16;;;21.98;100.00
6835;BME280;3455;42.150;24.734;2022-08-25T01:54:42;67766.22;;;22.02;100.00
6835;BME280;3455;42.150;24.734;2022-08-25T01:57:10;67756.63;;;21.96;100.00
6835;BME280;3455;42.150;24.734;2022-08-25T01:59:37;67744.47;;;21.90;100.00
6835;BME280;3455;42.150;24.734;2022-08-25T02:02:04;67738.16;;;21.89;100.00
6835;BME280;3455;42.150;24.734;2022-08-25T02:04:32;67756.63;;;21.96;100.00
6835;BME280;3455;42.150;24.734;2022-08-25T02:07:00;67742.63;;;21.84;100.00
6835;BME280;3455;42.150;24.734;2022-08-25T02:09:27;67749.63;;;21.90;100.00
6835;BME280;3455;42.150;24.734;2022-08-25T02:11:54;67764.94;;;21.81;100.00
6835;BME280;3455;42.150;24.734;2022-08-25T02:14:22;67743.53;;;21.87;100.00
6835;BME280;3455;42.150;24.734;2022-08-25T02:16:51;67736.47;;;21.92;100.00
6835;BME280;3455;42.150;24.734;2022-08-25T02:19:19;67700.00;;;21.73;100.00
6835;BME280;3455;42.150;24.734;2022-08-25T02:21:46;67744.38;;;21.69;100.00
6835;BME280;3455;42.150;24.734;2022-08-25T02:24:14;67708.75;;;21.65;100.00
6835;BME280;3455;42.150;24.734;2022-08-25T02:26:41;67696.91;;;21.62;100.00
6835;BME280;3455;42.150;24.734;2022-08-25T02:29:08;67762.25;;;21.60;100.00
6835;BME280;3455;42.150;24.734;2022-08-25T02:31:36;67695.34;;;21.69;100.00
6835;BME280;3455;42.150;24.734;2022-08-25T02:34:04;67728.88;;;21.53;100.00
6835;BME280;3455;42.150;24.734;2022-08-25T02:36:31;67720.22;;;21.50;100.00
6835;BME280;3455;42.150;24.734;2022-08-25T02:38:58;67706.50;;;21.52;100.00
6835;BME280;3455;42.150;24.734;2022-08-25T02:41:26;67665.34;;;21.29;100.00
6835;BME280;3455;42.150;24.734;2022-08-25T02:43:52;67646.88;;;21.22;100.00
6835;BME280;3455;42.150;24.734;2022-08-25T02:46:20;67632.56;;;21.23;100.00
6835;BME280;3455;42.150;24.734;2022-08-25T02:48:49;67680.81;;;21.29;100.00
6835;BME280;3455;42.150;24.734;2022-08-25T02:51:17;67660.75;;;21.30;100.00
6835;BME280;3455;42.150;24.734;2022-08-25T02:53:44;67686.16;;;21.38;100.00
6835;BME280;3455;42.150;24.734;2022-08-25T02:56:13;67692.47;;;21.39;100.00
6835;BME280;3455;42.150;24.734;2022-08-25T02:58:41;67730.00;;;21.38;100.00
6835;BME280;3455;42.150;24.734;2022-08-25T03:01:08;67685.56;;;21.38;100.00
6835;BME280;3455;42.150;24.734;2022-08-25T03:03:36;67669.25;;;21.24;100.00
6835;BME280;3455;42.150;24.734;2022-08-25T03:06:05;67654.66;;;21.11;100.00
6835;BME280;3455;42.150;24.734;2022-08-25T03:08:33;67659.44;;;21.19;100.00
6835;BME280;3455;42.150;24.734;2022-08-25T03:11:00;67671.31;;;21.12;100.00
6835;BME280;3455;42.150;24.734;2022-08-25T03:13:26;67702.44;;;21.21;100.00
6835;BME280;3455;42.150;24.734;2022-08-25T03:15:53;67668.00;;;21.18;100.00
6835;BME280;3455;42.150;24.734;2022-08-25T03:18:20;67671.50;;;21.21;100.00
6835;BME280;3455;42.150;24.734;2022-08-25T03:20:47;67710.00;;;21.28;100.00
6835;BME280;3455;42.150;24.734;2022-08-25T03:23:16;67633.88;;;21.02;100.00
6835;BME280;3455;42.150;24.734;2022-08-25T03:25:43;67684.84;;;21.01;100.00
6835;BME280;3455;42.150;24.734;2022-08-25T03:28:27;67660.31;;;21.07;100.00
6835;BME280;3455;42.150;24.734;2022-08-25T03:30:55;67679.28;;;21.10;100.00
6835;BME280;3455;42.150;24.734;2022-08-25T03:33:25;67653.28;;;21.12;100.00
6835;BME280;3455;42.150;24.734;2022-08-25T03:35:51;67647.69;;;21.05;100.00
6835;BME280;3455;42.150;24.734;2022-08-25T03:38:20;67691.25;;;21.07;100.00
6835;BME280;3455;42.150;24.734;2022-08-25T03:40:47;67652.16;;;20.99;100.00
6835;BME280;3455;42.150;24.734;2022-08-25T03:43:14;67635.44;;;20.94;100.00
6835;BME280;3455;42.150;24.734;2022-08-25T03:45:43;67641.34;;;21.04;100.00
6835;BME280;3455;42.150;24.734;2022-08-25T03:48:11;67634.38;;;20.97;100.00
6835;BME280;3455;42.150;24.734;2022-08-25T03:50:43;67646.56;;;20.92;100.00
6835;BME280;3455;42.150;24.734;2022-08-25T03:53:10;67622.81;;;20.92;100.00
6835;BME280;3455;42.150;24.734;2022-08-25T03:55:39;67642.75;;;20.87;100.00
6835;BME280;3455;42.150;24.734;2022-08-25T03:58:05;67641.66;;;20.90;100.00
6835;BME280;3455;42.150;24.734;2022-08-25T04:00:32;67624.75;;;21.03;100.00
6835;BME280;3455;42.150;24.734;2022-08-25T04:02:59;67682.50;;;20.99;100.00
6835;BME280;3455;42.150;24.734;2022-08-25T04:05:26;67648.00;;;20.91;100.00
6835;BME280;3455;42.150;24.734;2022-08-25T04:07:53;67628.34;;;20.83;100.00
6835;BME280;3455;42.150;24.734;2022-08-25T04:10:20;67647.06;;;20.88;100.00
6835;BME280;3455;42.150;24.734;2022-08-25T04:12:48;67630.69;;;20.85;100.00
6835;BME280;3455;42.150;24.734;2022-08-25T04:15:15;67655.16;;;20.91;100.00
6835;BME280;3455;42.150;24.734;2022-08-25T04:17:41;67672.88;;;21.04;100.00
6835;BME280;3455;42.150;24.734;2022-08-25T04:20:10;67665.97;;;21.03;100.00
6835;BME280;3455;42.150;24.734;2022-08-25T04:22:37;67679.09;;;21.00;100.00
6835;BME280;3455;42.150;24.734;2022-08-25T04:25:05;67681.56;;;21.23;100.00
6835;BME280;3455;42.150;24.734;2022-08-25T04:27:32;67700.50;;;21.26;100.00
6835;BME280;3455;42.150;24.734;2022-08-25T04:30:00;67694.50;;;21.55;100.00
6835;BME280;3455;42.150;24.734;2022-08-25T04:32:27;67729.53;;;21.58;100.00
6835;BME280;3455;42.150;24.734;2022-08-25T04:34:54;67746.09;;;21.55;100.00
6835;BME280;3455;42.150;24.734;2022-08-25T04:37:20;67742.97;;;21.70;100.00
6835;BME280;3455;42.150;24.734;2022-08-25T04:39:47;67749.28;;;21.71;100.00
6835;BME280;3455;42.150;24.734;2022-08-25T04:42:14;67778.44;;;21.97;100.00
6835;BME280;3455;42.150;24.734;2022-08-25T04:44:41;67723.22;;;21.57;100.00
6835;BME280;3455;42.150;24.734;2022-08-25T04:47:09;67784.78;;;21.98;100.00
6835;BME280;3455;42.150;24.734;2022-08-25T04:49:36;67812.88;;;22.11;100.00
6835;BME280;3455;42.150;24.734;2022-08-25T04:52:04;67818.25;;;22.09;100.00
6835;BME280;3455;42.150;24.734;2022-08-25T04:54:31;67826.66;;;22.42;100.00
6835;BME280;3455;42.150;24.734;2022-08-25T04:56:58;67827.66;;;22.49;100.00
6835;BME280;3455;42.150;24.734;2022-08-25T04:59:25;67837.31;;;22.44;100.00
6835;BME280;3455;42.150;24.734;2022-08-25T05:01:52;67881.25;;;22.60;100.00
6835;BME280;3455;42.150;24.734;2022-08-25T05:04:21;67843.59;;;22.72;100.00
6835;BME280;3455;42.150;24.734;2022-08-25T05:06:48;67878.03;;;23.03;100.00
6835;BME280;3455;42.150;24.734;2022-08-25T05:09:15;67912.13;;;22.99;100.00
6835;BME280;3455;42.150;24.734;2022-08-25T05:11:42;67940.53;;;23.10;100.00
6835;BME280;3455;42.150;24.734;2022-08-25T05:14:09;67943.03;;;23.37;100.00
6835;BME280;3455;42.150;24.734;2022-08-25T05:16:38;67958.47;;;23.32;100.00
6835;BME280;3455;42.150;24.734;2022-08-25T05:19:05;67929.78;;;23.35;100.00
6835;BME280;3455;42.150;24.734;2022-08-25T05:21:34;67944.38;;;23.47;100.00
6835;BME280;3455;42.150;24.734;2022-08-25T05:24:01;68010.25;;;23.96;98.47
6835;BME280;3455;42.150;24.734;2022-08-25T05:26:30;68086.53;;;24.45;95.38
6835;BME280;3455;42.150;24.734;2022-08-25T05:28:59;68190.03;;;25.15;92.97
6835;BME280;3455;42.150;24.734;2022-08-25T05:31:27;68292.41;;;25.80;90.42
6835;BME280;3455;42.150;24.734;2022-08-25T05:33:54;68353.50;;;26.42;87.41
6835;BME280;3455;42.150;24.734;2022-08-25T05:36:23;68372.72;;;26.50;85.70
6835;BME280;3455;42.150;24.734;2022-08-25T05:38:52;68425.56;;;27.01;83.77
6835;BME280;3455;42.150;24.734;2022-08-25T05:41:24;68505.78;;;27.42;81.94
6835;BME280;3455;42.150;24.734;2022-08-25T05:43:51;68405.78;;;26.93;81.86
6835;BME280;3455;42.150;24.734;2022-08-25T05:46:18;68401.69;;;27.26;81.06
6835;BME280;3455;42.150;24.734;2022-08-25T05:48:45;68644.72;;;27.92;78.02
6835;BME280;3455;42.150;24.734;2022-08-25T05:51:13;68539.06;;;27.77;79.94
6835;BME280;3455;42.150;24.734;2022-08-25T05:53:42;68645.22;;;28.41;76.35
6835;BME280;3455;42.150;24.734;2022-08-25T05:56:11;68579.59;;;28.13;78.09
6835;BME280;3455;42.150;24.734;2022-08-25T05:58:39;68698.31;;;28.80;75.66
6835;BME280;3455;42.150;24.734;2022-08-25T06:01:07;68600.38;;;28.45;76.20
6835;BME280;3455;42.150;24.734;2022-08-25T06:03:51;68552.59;;;27.89;78.52
6835;BME280;3455;42.150;24.734;2022-08-25T06:06:19;68519.69;;;27.61;78.67
6835;BME280;3455;42.150;24.734;2022-08-25T06:08:46;68568.22;;;27.89;78.13
6835;BME280;3455;42.150;24.734;2022-08-25T06:11:14;68556.13;;;27.92;77.57
6835;BME280;3455;42.150;24.734;2022-08-25T06:13:42;68656.34;;;28.66;75.76
6835;BME280;3455;42.150;24.734;2022-08-25T06:16:10;68636.22;;;28.40;75.58
6835;BME280;3455;42.150;24.734;2022-08-25T06:18:37;68648.91;;;28.73;75.83
6835;BME280;3455;42.150;24.734;2022-08-25T06:21:09;68700.19;;;29.07;74.54
6835;BME280;3455;42.150;24.734;2022-08-25T06:23:38;68824.66;;;29.81;72.73
6835;BME280;3455;42.150;24.734;2022-08-25T06:26:05;68932.06;;;30.52;70.94
6835;BME280;3455;42.150;24.734;2022-08-25T06:28:34;68949.59;;;30.58;68.97
6835;BME280;3455;42.150;24.734;2022-08-25T06:31:01;68822.84;;;29.75;72.01
6835;BME280;3455;42.150;24.734;2022-08-25T06:33:28;68918.47;;;30.36;70.00
6835;BME280;3455;42.150;24.734;2022-08-25T06:35:55;68896.38;;;30.35;69.84
6835;BME280;3455;42.150;24.734;2022-08-25T06:38:23;68901.59;;;29.98;70.63
6835;BME280;3455;42.150;24.734;2022-08-25T06:40:50;68882.19;;;30.22;70.68
6835;BME280;3455;42.150;24.734;2022-08-25T06:43:17;68825.31;;;29.86;70.79
6835;BME280;3455;42.150;24.734;2022-08-25T06:45:45;68778.75;;;29.41;72.52
6835;BME280;3455;42.150;24.734;2022-08-25T06:48:12;68708.75;;;29.17;74.15
6835;BME280;3455;42.150;24.734;2022-08-25T06:50:40;68924.72;;;30.27;71.05
6835;BME280;3455;42.150;24.734;2022-08-25T06:53:07;69121.34;;;31.39;67.72
6835;BME280;3455;42.150;24.734;2022-08-25T06:55:34;69200.72;;;32.27;64.65
6835;BME280;3455;42.150;24.734;2022-08-25T06:58:01;69350.63;;;33.02;64.84
6835;BME280;3455;42.150;24.734;2022-08-25T07:00:29;69331.09;;;32.85;63.05
6835;BME280;3455;42.150;24.734;2022-08-25T07:02:57;69361.91;;;33.16;62.81
6835;BME280;3455;42.150;24.734;2022-08-25T07:05:26;69431.59;;;33.27;63.22
6835;BME280;3455;42.150;24.734;2022-08-25T07:07:53;69469.56;;;33.48;61.58
6835;BME280;3455;42.150;24.734;2022-08-25T07:10:20;69580.41;;;34.28;57.47
6835;BME280;3455;42.150;24.734;2022-08-25T07:12:48;69547.91;;;34.09;56.34
6835;BME280;3455;42.150;24.734;2022-08-25T07:15:16;69439.34;;;33.38;57.35
6835;BME280;3455;42.150;24.734;2022-08-25T07:17:42;69478.84;;;33.63;56.91
6835;BME280;3455;42.150;24.734;2022-08-25T07:20:11;69425.84;;;33.56;55.97
6835;BME280;3455;42.150;24.734;2022-08-25T07:22:38;69515.44;;;34.06;55.37
6835;BME280;3455;42.150;24.734;2022-08-25T07:25:06;69579.78;;;34.28;55.02
6835;BME280;3455;42.150;24.734;2022-08-25T07:27:33;69523.25;;;34.02;54.97
6835;BME280;3455;42.150;24.734;2022-08-25T07:29:59;69497.00;;;33.65;55.75
6835;BME280;3455;42.150;24.734;2022-08-25T07:32:26;69562.34;;;34.36;53.93
6835;BME280;3455;42.150;24.734;2022-08-25T07:34:53;69684.78;;;34.82;53.06
6835;BME280;3455;42.150;24.734;2022-08-25T07:37:38;69677.00;;;34.71;53.07
6835;BME280;3455;42.150;24.734;2022-08-25T07:40:06;69659.69;;;34.88;53.95
6835;BME280;3455;42.150;24.734;2022-08-25T07:42:34;69896.84;;;35.93;51.67
6835;BME280;3455;42.150;24.734;2022-08-25T07:45:01;70052.34;;;36.68;47.49
6835;BME280;3455;42.150;24.734;2022-08-25T07:47:29;69875.13;;;35.72;49.11
6835;BME280;3455;42.150;24.734;2022-08-25T07:49:56;70060.16;;;36.79;46.57
6835;BME280;3455;42.150;24.734;2022-08-25T07:52:23;70096.97;;;37.06;46.60
6835;BME280;3455;42.150;24.734;2022-08-25T07:54:51;70079.38;;;37.09;45.27
6835;BME280;3455;42.150;24.734;2022-08-25T07:57:19;70040.13;;;36.75;46.39
6835;BME280;3455;42.150;24.734;2022-08-25T07:59:49;69905.25;;;36.09;46.20
6835;BME280;3455;42.150;24.734;2022-08-25T08:02:15;70093.19;;;36.89;45.22
6835;BME280;3455;42.150;24.734;2022-08-25T08:04:42;69973.25;;;36.40;45.41
6835;BME280;3455;42.150;24.734;2022-08-25T08:07:09;70074.63;;;37.05;44.58
6835;BME280;3455;42.150;24.734;2022-08-25T08:09:36;70189.47;;;37.58;43.46
6835;BME280;3455;42.150;24.734;2022-08-25T08:12:05;70227.19;;;37.64;42.63
6835;BME280;3455;42.150;24.734;2022-08-25T08:14:32;70347.50;;;38.17;40.68
6835;BME280;3455;42.150;24.734;2022-08-25T08:17:03;70336.75;;;38.08;40.19
6835;BME280;3455;42.150;24.734;2022-08-25T08:19:30;70427.44;;;38.45;39.53
6835;BME280;3455;42.150;24.734;2022-08-25T08:21:57;70476.41;;;38.87;38.40
6835;BME280;3455;42.150;24.734;2022-08-25T08:24:23;70371.50;;;38.47;38.38
6835;BME280;3455;42.150;24.734;2022-08-25T08:26:50;70222.56;;;37.69;40.72
6835;BME280;3455;42.150;24.734;2022-08-25T08:29:18;70490.72;;;38.99;37.52
6835;BME280;3455;42.150;24.734;2022-08-25T08:31:47;70306.16;;;38.50;38.95
6835;BME280;3455;42.150;24.734;2022-08-25T08:34:14;70405.34;;;38.62;36.99
6835;BME280;3455;42.150;24.734;2022-08-25T08:36:42;70587.88;;;39.44;36.85
6835;BME280;3455;42.150;24.734;2022-08-25T08:39:09;70615.59;;;39.61;36.70
6835;BME280;3455;42.150;24.734;2022-08-25T08:41:45;70700.13;;;40.06;34.61
6835;BME280;3455;42.150;24.734;2022-08-25T08:44:43;70606.28;;;39.50;35.64
6835;BME280;3455;42.150;24.734;2022-08-25T08:47:21;70622.09;;;39.62;35.44
6835;BME280;3455;42.150;24.734;2022-08-25T08:50:01;70388.66;;;38.52;37.91
6835;BME280;3455;42.150;24.734;2022-08-25T08:52:36;70312.13;;;38.14;37.28
6835;BME280;3455;42.150;24.734;2022-08-25T08:55:09;70590.00;;;39.48;37.23
6835;BME280;3455;42.150;24.734;2022-08-25T08:57:43;70389.56;;;38.71;36.13
6835;BME280;3455;42.150;24.734;2022-08-25T09:00:13;70428.94;;;38.64;35.95
6835;BME280;3455;42.150;24.734;2022-08-25T09:02:47;70483.03;;;38.97;35.71
6835;BME280;3455;42.150;24.734;2022-08-25T09:05:18;70499.00;;;39.18;34.98
6835;BME280;3455;42.150;24.734;2022-08-25T09:07:48;70661.59;;;39.96;33.73
6835;BME280;3455;42.150;24.734;2022-08-25T09:10:16;70721.97;;;40.06;32.86
6835;BME280;3455;42.150;24.734;2022-08-25T09:12:48;70887.44;;;40.80;31.80
6835;BME280;3455;42.150;24.734;2022-08-25T09:15:30;70773.78;;;40.33;32.95
6835;BME280;3455;42.150;24.734;2022-08-25T09:18:21;70622.44;;;39.85;33.72
6835;BME280;3455;42.150;24.734;2022-08-25T09:21:01;70815.88;;;40.78;32.06
6835;BME280;3455;42.150;24.734;2022-08-25T09:23:36;70722.19;;;40.20;33.13
6835;BME280;3455;42.150;24.734;2022-08-25T09:26:19;70985.47;;;41.41;31.83
6835;BME280;3455;42.150;24.734;2022-08-25T09:28:50;71041.00;;;41.70;29.58
6835;BME280;3455;42.150;24.734;2022-08-25T09:31:23;70870.06;;;41.01;29.51
6835;BME280;3455;42.150;24.734;2022-08-25T09:33:54;70926.44;;;41.13;29.40
6835;BME280;3455;42.150;24.734;2022-08-25T09:36:22;70962.34;;;41.39;29.22
6835;BME280;3455;42.150;24.734;2022-08-25T09:38:49;71111.78;;;41.90;29.21
6835;BME280;3455;42.150;24.734;2022-08-25T09:41:33;70252.66;;;38.13;33.34
6835;BME280;3455;42.150;24.734;2022-08-25T09:44:01;70051.22;;;37.12;34.67
6835;BME280;3455;42.150;24.734;2022-08-25T09:46:29;70347.00;;;38.62;31.45
6835;BME280;3455;42.150;24.734;2022-08-25T09:48:57;70611.72;;;39.80;31.37
6835;BME280;3455;42.150;24.734;2022-08-25T09:51:37;70835.97;;;40.77;30.53
6835;BME280;3455;42.150;24.734;2022-08-25T09:54:15;70863.78;;;40.98;28.49
6835;BME280;3455;42.150;24.734;2022-08-25T09:56:48;70980.47;;;41.43;27.95
6835;BME280;3455;42.150;24.734;2022-08-25T09:59:21;70635.88;;;39.94;29.88
6835;BME280;3455;42.150;24.734;2022-08-25T10:01:50;70538.53;;;39.40;31.25
6835;BME280;3455;42.150;24.734;2022-08-25T10:04:24;70644.97;;;39.90;30.79
6835;BME280;3455;42.150;24.734;2022-08-25T10:06:51;70973.59;;;41.40;28.68
6835;BME280;3455;42.150;24.734;2022-08-25T10:09:26;70922.81;;;41.47;28.38
6835;BME280;3455;42.150;24.734;2022-08-25T10:11:56;70979.22;;;41.58;27.93
6835;BME280;3455;42.150;24.734;2022-08-25T10:14:27;70752.00;;;40.37;29.96
6835;BME280;3455;42.150;24.734;2022-08-25T10:17:14;71075.75;;;41.95;28.32
6835;BME280;3455;42.150;24.734;2022-08-25T10:19:42;71167.50;;;42.65;26.86
6835;BME280;3455;42.150;24.734;2022-08-25T10:22:10;70990.03;;;41.68;27.92
6835;BME280;3455;42.150;24.734;2022-08-25T10:24:39;70765.69;;;40.44;31.15
6835;BME280;3455;42.150;24.734;2022-08-25T10:27:15;71037.75;;;41.90;28.29
6835;BME280;3455;42.150;24.734;2022-08-25T10:30:06;70497.53;;;39.19;31.26
6835;BME280;3455;42.150;24.734;2022-08-25T10:32:56;70153.06;;;37.64;34.55
6835;BME280;3455;42.150;24.734;2022-08-25T10:35:41;70204.91;;;37.67;32.77
6835;BME280;3455;42.150;24.734;2022-08-25T10:38:24;70181.78;;;37.56;31.90
6835;BME280;3455;42.150;24.734;2022-08-25T10:41:00;69970.53;;;36.56;32.21
6835;BME280;3455;42.150;24.734;2022-08-25T10:43:34;70245.28;;;37.93;32.23
6835;BME280;3455;42.150;24.734;2022-08-25T10:46:11;70651.31;;;39.09;28.97
6835;BME280;3455;42.150;24.734;2022-08-25T10:48:50;70861.56;;;40.90;27.78
6835;BME280;3455;42.150;24.734;2022-08-25T10:54:32;71233.97;;;42.67;23.67
6835;BME280;3455;42.150;24.734;2022-08-25T10:57:07;71182.03;;;42.45;24.98
6835;BME280;3455;42.150;24.734;2022-08-25T10:59:50;70939.44;;;41.52;26.09
6835;BME280;3455;42.150;24.734;2022-08-25T11:02:55;70819.88;;;40.88;27.35
6835;BME280;3455;42.150;24.734;2022-08-25T11:05:30;70682.06;;;40.22;28.97
6835;BME280;3455;42.150;24.734;2022-08-25T11:08:07;70297.94;;;38.31;31.13
6835;BME280;3455;42.150;24.734;2022-08-25T11:10:40;70104.63;;;37.49;32.30
6835;BME280;3455;42.150;24.734;2022-08-25T11:13:15;69923.78;;;36.30;33.57
6835;BME280;3455;42.150;24.734;2022-08-25T11:15:50;70361.78;;;38.66;30.18
6835;BME280;3455;42.150;24.734;2022-08-25T11:18:19;70680.59;;;40.23;28.32
6835;BME280;3455;42.150;24.734;2022-08-25T11:20:55;70775.94;;;40.98;27.45
6835;BME280;3455;42.150;24.734;2022-08-25T11:23:29;70794.16;;;40.71;28.17
6835;BME280;3455;42.150;24.734;2022-08-25T11:25:59;70622.25;;;39.92;28.29
6835;BME280;3455;42.150;24.734;2022-08-25T11:28:33;70845.56;;;41.05;26.56
6835;BME280;3455;42.150;24.734;2022-08-25T11:31:02;70883.28;;;41.17;27.17
6835;BME280;3455;42.150;24.734;2022-08-25T11:33:30;71139.59;;;42.23;25.62
6835;BME280;3455;42.150;24.734;2022-08-25T11:36:02;71137.84;;;42.26;24.62
6835;BME280;3455;42.150;24.734;2022-08-25T11:38:40;71234.25;;;42.85;23.80
6835;BME280;3455;42.150;24.734;2022-08-25T11:41:19;71270.94;;;42.96;24.72
6835;BME280;3455;42.150;24.734;2022-08-25T11:44:03;70857.16;;;41.09;25.15
6835;BME280;3455;42.150;24.734;2022-08-25T11:46:46;70615.47;;;39.93;27.02
6835;BME280;3455;42.150;24.734;2022-08-25T11:49:41;70352.56;;;38.81;29.24
6835;BME280;3455;42.150;24.734;2022-08-25T11:55:18;70319.66;;;38.48;28.61
6835;BME280;3455;42.150;24.734;2022-08-25T11:57:48;70680.06;;;40.27;26.47
6835;BME280;3455;42.150;24.734;2022-08-25T12:00:38;70772.00;;;40.72;26.03
6835;BME280;3455;42.150;24.734;2022-08-25T12:06:22;70328.88;;;38.53;29.71
6835;BME280;3455;42.150;24.734;2022-08-25T12:08:53;70272.25;;;38.25;30.08
6835;BME280;3455;42.150;24.734;2022-08-25T12:11:49;70208.50;;;38.36;29.70
6835;BME280;3455;42.150;24.734;2022-08-25T12:14:43;70063.59;;;37.14;30.34
6835;BME280;3455;42.150;24.734;2022-08-25T12:17:19;70013.81;;;36.85;30.61
6835;BME280;3455;42.150;24.734;2022-08-25T12:19:51;69974.53;;;36.92;31.47
6835;BME280;3455;42.150;24.734;2022-08-25T12:22:40;70385.97;;;38.68;29.38
6835;BME280;3455;42.150;24.734;2022-08-25T12:25:27;70594.34;;;40.02;28.22
6835;BME280;3455;42.150;24.734;2022-08-25T12:28:03;70618.66;;;40.09;28.18
6835;BME280;3455;42.150;24.734;2022-08-25T12:30:41;70637.00;;;40.11;27.95
6835;BME280;3455;42.150;24.734;2022-08-25T12:33:17;70832.13;;;40.96;27.62
6835;BME280;3455;42.150;24.734;2022-08-25T12:35:55;70961.03;;;41.70;25.38
6835;BME280;3455;42.150;24.734;2022-08-25T12:38:31;71020.63;;;41.94;24.43
6835;BME280;3455;42.150;24.734;2022-08-25T12:41:02;70850.88;;;41.05;25.20
6835;BME280;3455;42.150;24.734;2022-08-25T12:43:33;70873.22;;;41.18;25.84
6835;BME280;3455;42.150;24.734;2022-08-25T12:46:31;70654.94;;;40.26;25.77
6835;BME280;3455;42.150;24.734;2022-08-25T12:49:00;70210.13;;;38.04;29.01
6835;BME280;3455;42.150;24.734;2022-08-25T12:51:43;70086.56;;;37.61;30.49
6835;BME280;3455;42.150;24.734;2022-08-25T12:54:16;70169.34;;;37.71;30.07
6835;BME280;3455;42.150;24.734;2022-08-25T12:56:49;70035.88;;;37.08;31.52
6835;BME280;3455;42.150;24.734;2022-08-25T12:59:20;69946.25;;;36.86;32.32
6835;BME280;3455;42.150;24.734;2022-08-25T13:05:03;70427.59;;;38.95;29.27
6835;BME280;3455;42.150;24.734;2022-08-25T13:08:00;70613.69;;;39.91;27.37
6835;BME280;3455;42.150;24.734;2022-08-25T13:10:44;70609.47;;;39.87;28.53
6835;BME280;3455;42.150;24.734;2022-08-25T13:13:18;70324.03;;;38.65;28.33
6835;BME280;3455;42.150;24.734;2022-08-25T13:15:59;70284.81;;;38.41;29.00
6835;BME280;3455;42.150;24.734;2022-08-25T13:18:28;70163.78;;;37.73;30.07
6835;BME280;3455;42.150;24.734;2022-08-25T13:21:02;69945.44;;;36.92;32.93
6835;BME280;3455;42.150;24.734;2022-08-25T13:23:30;69869.81;;;36.33;34.10
6835;BME280;3455;42.150;24.734;2022-08-25T13:26:00;69788.50;;;36.09;34.44
6835;BME280;3455;42.150;24.734;2022-08-25T13:28:29;69891.72;;;36.48;34.45
6835;BME280;3455;42.150;24.734;2022-08-25T13:31:05;69653.13;;;35.23;35.43
6835;BME280;3455;42.150;24.734;2022-08-25T13:33:33;69597.28;;;34.86;36.39
6835;BME280;3455;42.150;24.734;2022-08-25T13:36:00;69396.56;;;34.20;38.58
6835;BME280;3455;42.150;24.734;2022-08-25T13:38:47;69248.22;;;32.86;43.79